createdAt,value
2019-03-22T00:00:16.014Z,36.30
2019-03-22T00:02:44.496Z,33.78
2019-03-22T00:05:13.139Z,35.43
2019-03-22T00:07:41.625Z,30.00
2019-03-22T00:10:10.261Z,31.23
2019-03-22T00:12:38.763Z,29.45
2019-03-22T00:15:08.103Z,30.25
2019-03-22T00:17:36.552Z,27.67
2019-03-22T00:20:08.727Z,25.70
2019-03-22T00:22:37.378Z,27.87
2019-03-22T00:25:06.773Z,29.23
2019-03-22T00:27:35.255Z,29.87
2019-03-22T00:30:13.045Z,29.40
2019-03-22T00:32:41.682Z,28.38
2019-03-22T00:35:10.532Z,28.65
2019-03-22T00:37:39.153Z,30.25
2019-03-22T00:40:09.005Z,30.23
2019-03-22T00:42:37.479Z,30.88
2019-03-22T00:45:08.099Z,31.65
2019-03-22T00:47:36.656Z,28.60
2019-03-22T00:50:07.274Z,27.62
2019-03-22T00:52:35.765Z,30.95
2019-03-22T00:55:06.448Z,27.82
2019-03-22T00:57:34.955Z,31.45
2019-03-22T01:00:05.125Z,31.57
2019-03-22T01:02:33.665Z,29.65
2019-03-22T01:05:02.271Z,31.65
2019-03-22T01:07:31.004Z,30.92
2019-03-22T01:09:59.493Z,30.23
2019-03-22T01:12:27.982Z,32.73
2019-03-22T01:14:56.470Z,31.00
2019-03-22T01:17:24.966Z,30.10
2019-03-22T01:19:53.523Z,32.40
2019-03-22T01:22:22.067Z,36.80
2019-03-22T01:24:50.552Z,37.00
2019-03-22T01:27:19.036Z,40.23
2019-03-22T01:29:47.511Z,42.33
2019-03-22T01:32:15.996Z,43.38
2019-03-22T01:34:44.523Z,44.27
2019-03-22T01:37:13.153Z,43.65
2019-03-22T01:39:41.613Z,45.55
2019-03-22T01:42:10.127Z,44.08
2019-03-22T01:44:41.502Z,45.90
2019-03-22T01:47:09.889Z,46.08
2019-03-22T01:49:38.390Z,45.88
2019-03-22T01:52:06.945Z,44.65
2019-03-22T01:54:35.488Z,45.00
2019-03-22T01:57:04.044Z,44.73
2019-03-22T01:59:33.199Z,43.75
2019-03-22T02:02:01.660Z,46.98
2019-03-22T02:04:30.167Z,46.55
2019-03-22T02:06:58.647Z,43.45
2019-03-22T02:09:27.389Z,42.48
2019-03-22T02:11:55.867Z,41.80
2019-03-22T02:14:24.423Z,43.50
2019-03-22T02:16:52.916Z,42.38
2019-03-22T02:19:21.372Z,43.50
2019-03-22T02:21:49.870Z,41.25
2019-03-22T02:24:18.359Z,39.45
2019-03-22T02:26:46.840Z,40.73
2019-03-22T02:29:15.416Z,42.55
2019-03-22T02:31:43.877Z,44.23
2019-03-22T02:34:12.372Z,44.03
2019-03-22T02:36:40.837Z,42.58
2019-03-22T02:39:09.320Z,44.13
2019-03-22T02:41:37.843Z,41.98
2019-03-22T02:44:06.364Z,42.88
2019-03-22T02:46:34.836Z,42.83
2019-03-22T02:49:03.313Z,44.58
2019-03-22T02:51:31.886Z,44.20
2019-03-22T02:54:00.351Z,43.83
2019-03-22T02:56:28.865Z,43.45
2019-03-22T02:58:59.402Z,44.33
2019-03-22T03:01:27.776Z,44.53
2019-03-22T03:03:56.328Z,41.92
2019-03-22T03:06:24.812Z,42.88
2019-03-22T03:08:53.288Z,44.05
2019-03-22T03:11:21.758Z,42.43
2019-03-22T03:13:50.243Z,44.42
2019-03-22T03:16:18.781Z,44.42
2019-03-22T03:18:47.253Z,43.83
2019-03-22T03:21:15.705Z,45.03
2019-03-22T03:23:44.215Z,42.78
2019-03-22T03:26:12.690Z,44.55
2019-03-22T03:28:41.150Z,44.73
2019-03-22T03:31:09.781Z,43.95
2019-03-22T03:33:38.228Z,44.67
2019-03-22T03:36:06.756Z,47.33
2019-03-22T03:38:35.217Z,43.98
2019-03-22T03:41:03.843Z,44.00
2019-03-22T03:43:32.372Z,46.50
2019-03-22T03:46:00.924Z,44.33
2019-03-22T03:48:29.394Z,41.95
2019-03-22T03:50:57.874Z,43.55
2019-03-22T03:53:26.582Z,44.75
2019-03-22T03:55:55.072Z,46.75
2019-03-22T03:58:23.696Z,44.65
2019-03-22T04:00:52.151Z,45.33
2019-03-22T04:03:20.720Z,43.87
2019-03-22T04:05:49.271Z,43.87
2019-03-22T04:08:17.751Z,45.40
2019-03-22T04:10:46.287Z,42.45
2019-03-22T04:13:14.764Z,46.77
2019-03-22T04:15:43.308Z,46.08
2019-03-22T04:18:11.825Z,45.95
2019-03-22T04:20:40.308Z,48.63
2019-03-22T04:23:08.762Z,49.33
2019-03-22T04:25:37.328Z,45.30
2019-03-22T04:28:05.783Z,44.58
2019-03-22T04:30:34.264Z,43.58
2019-03-22T04:33:06.253Z,41.40
2019-03-22T04:35:32.936Z,40.58
2019-03-22T04:38:01.482Z,38.70
2019-03-22T04:40:30.302Z,41.88
2019-03-22T04:42:59.021Z,41.68
2019-03-22T04:45:30.010Z,44.03
2019-03-22T04:48:04.334Z,39.08
2019-03-22T04:50:34.793Z,40.43
2019-03-22T04:53:04.398Z,41.40
2019-03-22T04:55:34.534Z,38.90
2019-03-22T04:58:04.104Z,40.35
2019-03-22T05:00:33.522Z,39.35
2019-03-22T05:03:03.225Z,40.30
2019-03-22T05:05:31.777Z,42.53
2019-03-22T05:08:00.663Z,41.88
2019-03-22T05:10:30.112Z,41.88
2019-03-22T05:13:01.319Z,41.53
2019-03-22T05:15:32.184Z,40.25
2019-03-22T05:18:02.698Z,39.15
2019-03-22T05:20:33.048Z,42.93
2019-03-22T05:23:03.065Z,41.30
2019-03-22T05:25:32.666Z,42.43
2019-03-22T05:28:03.480Z,46.18
2019-03-22T05:30:51.338Z,42.43
2019-03-22T05:33:19.822Z,39.45
2019-03-22T05:35:48.276Z,61.92
2019-03-22T05:38:16.736Z,46.13
2019-03-22T05:40:45.222Z,44.70
2019-03-22T05:43:13.672Z,42.08
2019-03-22T05:45:42.160Z,43.78
2019-03-22T05:48:10.627Z,41.23
2019-03-22T05:50:39.112Z,40.58
2019-03-22T05:53:07.610Z,42.90
2019-03-22T05:55:36.075Z,39.48
2019-03-22T05:58:04.566Z,42.43
2019-03-22T06:00:33.036Z,40.58
2019-03-22T06:03:01.529Z,40.98
2019-03-22T06:05:30.071Z,41.42
2019-03-22T06:07:58.588Z,40.55
2019-03-22T06:10:27.101Z,43.73
2019-03-22T06:12:55.603Z,43.10
2019-03-22T06:15:24.127Z,42.15
2019-03-22T06:17:52.615Z,40.35
2019-03-22T06:20:21.145Z,41.90
2019-03-22T06:22:49.672Z,40.70
2019-03-22T06:25:18.301Z,36.45
2019-03-22T06:27:46.743Z,42.98
2019-03-22T06:30:15.347Z,36.28
2019-03-22T06:32:43.877Z,42.48
2019-03-22T06:35:12.575Z,39.50
2019-03-22T06:37:41.282Z,39.75
2019-03-22T06:40:09.910Z,42.10
2019-03-22T06:42:38.383Z,43.48
2019-03-22T06:45:07.309Z,41.23
2019-03-22T06:47:35.797Z,44.23
2019-03-22T06:50:08.802Z,38.98
2019-03-22T06:52:37.385Z,45.48
2019-03-22T06:55:09.321Z,44.75
2019-03-22T06:57:39.107Z,43.33
2019-03-22T07:00:10.707Z,40.67
2019-03-22T07:02:39.175Z,43.33
2019-03-22T07:05:07.999Z,41.73
2019-03-22T07:07:36.465Z,39.53
2019-03-22T07:10:08.977Z,42.25
2019-03-22T07:12:44.551Z,43.83
2019-03-22T07:15:13.314Z,41.83
2019-03-22T07:17:44.598Z,40.08
2019-03-22T07:20:13.458Z,43.35
2019-03-22T07:22:41.918Z,42.70
2019-03-22T07:25:16.257Z,44.30
2019-03-22T07:27:45.193Z,45.25
2019-03-22T07:30:19.072Z,41.28
2019-03-22T07:32:46.799Z,39.88
2019-03-22T07:35:15.501Z,38.42
2019-03-22T07:37:45.505Z,39.10
2019-03-22T07:40:14.111Z,37.42
2019-03-22T07:42:42.625Z,36.30
2019-03-22T07:45:12.156Z,37.28
2019-03-22T07:47:40.634Z,36.80
2019-03-22T07:50:11.181Z,36.30
2019-03-22T07:52:39.635Z,37.85
2019-03-22T07:55:08.961Z,37.73
2019-03-22T07:57:37.438Z,36.08
2019-03-22T08:00:10.902Z,35.45
2019-03-22T08:02:44.750Z,38.17
2019-03-22T08:05:13.539Z,37.43
2019-03-22T08:07:42.075Z,37.53
2019-03-22T08:10:10.933Z,37.58
2019-03-22T08:12:41.412Z,41.02
2019-03-22T08:15:14.278Z,41.77
2019-03-22T08:17:42.854Z,41.28
2019-03-22T08:20:11.560Z,38.60
2019-03-22T08:22:40.210Z,39.85
2019-03-22T08:25:10.271Z,38.55
2019-03-22T08:27:38.802Z,39.30
2019-03-22T08:30:09.433Z,35.58
2019-03-22T08:32:39.645Z,38.45
2019-03-22T08:35:13.367Z,39.27
2019-03-22T08:37:52.022Z,39.63
2019-03-22T08:40:12.201Z,37.83
2019-03-22T08:42:42.728Z,34.50
2019-03-22T08:45:11.591Z,35.10
2019-03-22T08:47:40.160Z,34.95
2019-03-22T08:50:08.828Z,37.33
2019-03-22T08:52:37.396Z,35.78
2019-03-22T08:55:06.243Z,37.88
2019-03-22T08:57:34.712Z,35.13
2019-03-22T09:00:04.761Z,36.70
2019-03-22T09:02:34.621Z,36.93
2019-03-22T09:05:03.359Z,33.53
2019-03-22T09:07:31.772Z,36.05
2019-03-22T09:10:00.339Z,32.90
2019-03-22T09:12:28.756Z,30.40
2019-03-22T09:14:57.236Z,32.13
2019-03-22T09:17:25.714Z,31.05
2019-03-22T09:19:54.166Z,32.42
2019-03-22T09:22:22.658Z,31.75
2019-03-22T09:24:51.133Z,30.37
2019-03-22T09:27:21.161Z,28.87
2019-03-22T09:29:50.066Z,31.10
2019-03-22T09:32:18.516Z,32.00
2019-03-22T09:34:47.056Z,30.77
2019-03-22T09:37:15.540Z,31.80
2019-03-22T09:39:43.992Z,32.23
2019-03-22T09:42:12.538Z,31.25
2019-03-22T09:44:44.817Z,33.38
2019-03-22T09:47:16.453Z,34.30
2019-03-22T09:49:44.458Z,31.68
2019-03-22T09:52:14.562Z,32.17
2019-03-22T09:54:43.903Z,31.10
2019-03-22T09:57:12.370Z,33.00
2019-03-22T09:59:40.989Z,33.05
2019-03-22T10:02:09.469Z,31.73
2019-03-22T10:04:37.952Z,31.45
2019-03-22T10:07:09.093Z,32.15
2019-03-22T10:09:39.214Z,34.92
2019-03-22T10:12:07.821Z,33.02
2019-03-22T10:14:36.283Z,33.92
2019-03-22T10:17:06.289Z,32.35
2019-03-22T10:19:34.748Z,34.45
2019-03-22T10:22:03.439Z,38.60
2019-03-22T10:24:31.918Z,37.75
2019-03-22T10:27:00.473Z,33.65
2019-03-22T10:29:31.214Z,36.50
2019-03-22T10:31:59.721Z,38.70
2019-03-22T10:34:28.241Z,40.48
2019-03-22T10:36:56.727Z,37.35
2019-03-22T10:39:25.230Z,36.42
2019-03-22T10:41:53.711Z,38.85
2019-03-22T10:44:22.319Z,36.88
2019-03-22T10:46:50.886Z,38.63
2019-03-22T10:49:19.324Z,40.63
2019-03-22T10:51:56.629Z,40.45
2019-03-22T10:54:18.129Z,41.85
2019-03-22T10:56:46.697Z,38.30
2019-03-22T10:59:15.241Z,42.03
2019-03-22T11:01:52.271Z,40.25
2019-03-22T11:04:14.010Z,36.38
2019-03-22T11:06:42.503Z,39.55
2019-03-22T11:09:11.035Z,37.33
2019-03-22T11:11:39.580Z,40.20
2019-03-22T11:14:08.129Z,37.78
2019-03-22T11:16:36.605Z,41.10
2019-03-22T11:19:05.161Z,42.05
2019-03-22T11:21:33.652Z,38.75
2019-03-22T11:24:02.127Z,40.52
2019-03-22T11:26:35.161Z,37.67
2019-03-22T11:29:05.169Z,40.52
2019-03-22T11:31:39.781Z,39.20
2019-03-22T11:34:06.149Z,38.75
2019-03-22T11:36:34.631Z,38.20
2019-03-22T11:39:04.399Z,38.10
2019-03-22T11:41:32.889Z,37.70
2019-03-22T11:44:01.411Z,40.48
2019-03-22T11:46:31.108Z,41.18
2019-03-22T11:48:59.716Z,37.75
2019-03-22T11:51:28.433Z,39.78
2019-03-22T11:53:56.912Z,42.30
2019-03-22T11:56:26.874Z,40.55
2019-03-22T11:58:55.366Z,41.83
2019-03-22T12:01:23.849Z,42.35
2019-03-22T12:03:52.338Z,41.95
2019-03-22T12:06:24.070Z,42.73
2019-03-22T12:08:52.575Z,41.33
2019-03-22T12:11:22.707Z,42.88
2019-03-22T12:13:53.647Z,45.15
2019-03-22T12:16:22.189Z,44.65
2019-03-22T12:18:50.697Z,45.03
2019-03-22T12:21:19.450Z,44.23
2019-03-22T12:23:47.961Z,42.85
2019-03-22T12:26:16.442Z,45.60
2019-03-22T12:28:44.943Z,46.98
2019-03-22T12:31:14.941Z,44.65
2019-03-22T12:33:45.825Z,46.50
2019-03-22T12:36:14.303Z,49.03
2019-03-22T12:38:42.788Z,47.08
2019-03-22T12:41:14.369Z,46.73
2019-03-22T12:43:42.896Z,48.75
2019-03-22T12:46:11.374Z,51.28
2019-03-22T12:48:39.861Z,50.63
2019-03-22T12:51:08.358Z,49.00
2019-03-22T12:53:36.864Z,48.10
2019-03-22T12:56:05.458Z,46.70
2019-03-22T12:58:33.950Z,45.50
2019-03-22T13:01:06.333Z,46.23
2019-03-22T13:03:34.828Z,49.03
2019-03-22T13:06:03.372Z,49.70
2019-03-22T13:08:33.803Z,49.40
2019-03-22T13:11:02.153Z,44.63
2019-03-22T13:13:35.542Z,48.35
2019-03-22T13:16:04.009Z,49.53
2019-03-22T13:18:33.252Z,50.52
2019-03-22T13:21:01.765Z,48.58
2019-03-22T13:23:32.658Z,48.85
2019-03-22T13:26:02.773Z,46.30
2019-03-22T13:28:31.773Z,50.70
2019-03-22T13:31:00.254Z,48.45
2019-03-22T13:33:28.785Z,50.38
2019-03-22T13:35:57.243Z,46.70
2019-03-22T13:38:25.720Z,49.70
2019-03-22T13:40:59.809Z,49.85
2019-03-22T13:43:28.310Z,48.55
2019-03-22T13:45:56.791Z,47.00
2019-03-22T13:48:28.184Z,48.80
2019-03-22T13:50:56.765Z,48.28
2019-03-22T13:53:26.110Z,49.45
2019-03-22T13:55:54.592Z,47.55
2019-03-22T13:58:23.066Z,46.55
2019-03-22T14:00:51.568Z,48.78
2019-03-22T14:03:20.059Z,49.35
2019-03-22T14:05:48.542Z,49.20
2019-03-22T14:08:17.032Z,46.33
2019-03-22T14:10:45.512Z,50.38
2019-03-22T14:13:17.082Z,46.65
2019-03-22T14:15:45.611Z,49.08
2019-03-22T14:18:14.092Z,48.00
2019-03-22T14:20:42.679Z,45.60
2019-03-22T14:23:12.776Z,47.62
2019-03-22T14:25:41.280Z,48.98
2019-03-22T14:28:11.270Z,50.55
2019-03-22T14:30:39.845Z,49.38
2019-03-22T14:33:13.355Z,50.15
2019-03-22T14:35:38.588Z,47.75
2019-03-22T14:38:07.050Z,50.58
2019-03-22T14:40:35.520Z,51.65
2019-03-22T14:43:04.311Z,50.90
2019-03-22T14:45:33.530Z,51.10
2019-03-22T14:48:04.826Z,50.95
2019-03-22T14:50:33.437Z,52.30
2019-03-22T14:53:01.929Z,52.13
2019-03-22T14:55:39.755Z,56.15
2019-03-22T14:58:08.238Z,54.67
2019-03-22T15:00:36.799Z,54.83
2019-03-22T15:03:07.212Z,54.63
2019-03-22T15:05:36.000Z,54.03
2019-03-22T15:08:04.480Z,56.00
2019-03-22T15:10:33.093Z,56.25
2019-03-22T15:13:02.150Z,57.00
2019-03-22T15:15:32.344Z,52.85
2019-03-22T15:18:05.460Z,52.70
2019-03-22T15:20:51.495Z,55.58
2019-03-22T15:23:21.643Z,55.03
2019-03-22T15:26:00.291Z,54.67
2019-03-22T15:28:36.397Z,57.53
2019-03-22T15:31:16.767Z,54.98
2019-03-22T15:33:47.017Z,53.58
2019-03-22T15:36:17.206Z,53.15
2019-03-22T15:39:03.461Z,59.50
2019-03-22T15:41:32.229Z,58.68
2019-03-22T15:44:03.891Z,59.27
2019-03-22T15:46:32.430Z,58.40
2019-03-22T15:49:04.607Z,58.00
2019-03-22T15:51:33.073Z,59.67
2019-03-22T15:54:14.626Z,59.25
2019-03-22T15:56:44.755Z,59.10
2019-03-22T15:59:13.237Z,58.08
2019-03-22T16:01:41.795Z,59.13
2019-03-22T16:04:10.372Z,58.75
2019-03-22T16:06:39.031Z,59.25
2019-03-22T16:09:08.360Z,58.20
2019-03-22T16:11:36.871Z,60.10
2019-03-22T16:14:05.863Z,57.85
2019-03-22T16:16:34.373Z,57.05
2019-03-22T16:19:02.867Z,59.60
2019-03-22T16:21:31.531Z,61.42
2019-03-22T16:24:00.092Z,59.40
2019-03-22T16:26:28.871Z,58.02
2019-03-22T16:28:57.345Z,58.40
2019-03-22T16:31:26.066Z,55.65
2019-03-22T16:33:56.503Z,56.73
2019-03-22T16:36:25.033Z,55.55
2019-03-22T16:38:53.546Z,56.48
2019-03-22T16:41:23.524Z,56.68
2019-03-22T16:43:57.802Z,56.33
2019-03-22T16:46:33.992Z,58.15
2019-03-22T16:49:02.561Z,56.05
2019-03-22T16:51:31.036Z,55.78
2019-03-22T16:53:59.576Z,55.50
2019-03-22T16:56:28.061Z,54.95
2019-03-22T16:58:56.557Z,53.17
2019-03-22T17:01:28.577Z,56.13
2019-03-22T17:04:04.101Z,55.75
2019-03-22T17:06:27.437Z,56.70
2019-03-22T17:08:57.660Z,56.53
2019-03-22T17:11:28.538Z,53.95
2019-03-22T17:13:57.018Z,55.80
2019-03-22T17:16:25.557Z,55.67
2019-03-22T17:18:54.311Z,56.45
2019-03-22T17:21:22.770Z,56.92
2019-03-22T17:23:51.261Z,58.40
2019-03-22T17:26:19.741Z,56.18
2019-03-22T17:28:48.229Z,57.62
2019-03-22T17:31:16.703Z,59.58
2019-03-22T17:33:45.388Z,55.85
2019-03-22T17:36:13.947Z,60.48
2019-03-22T17:38:42.490Z,60.88
2019-03-22T17:41:10.971Z,55.20
2019-03-22T17:43:39.445Z,61.98
2019-03-22T17:46:08.031Z,61.35
2019-03-22T17:48:38.290Z,62.08
2019-03-22T17:51:06.782Z,62.17
2019-03-22T17:53:35.534Z,62.75
2019-03-22T17:56:05.527Z,62.65
2019-03-22T17:58:37.034Z,63.60
2019-03-22T18:01:07.435Z,57.75
2019-03-22T18:03:35.906Z,57.38
2019-03-22T18:06:04.779Z,56.70
2019-03-22T18:08:40.696Z,55.43
2019-03-22T18:11:09.194Z,60.30
2019-03-22T18:13:37.683Z,59.25
2019-03-22T18:16:06.244Z,53.63
2019-03-22T18:18:34.762Z,59.98
2019-03-22T18:21:03.326Z,59.38
2019-03-22T18:23:35.956Z,61.90
2019-03-22T18:26:02.627Z,55.80
2019-03-22T18:28:31.806Z,58.40
2019-03-22T18:31:00.262Z,56.37
2019-03-22T18:33:28.747Z,60.75
2019-03-22T18:35:57.224Z,65.25
2019-03-22T18:38:25.718Z,64.03
2019-03-22T18:40:54.252Z,65.08
2019-03-22T18:43:24.519Z,61.33
2019-03-22T18:45:52.996Z,64.62
2019-03-22T18:48:24.540Z,61.70
2019-03-22T18:50:56.951Z,68.10
2019-03-22T18:53:23.226Z,67.17
2019-03-22T18:55:51.699Z,66.20
2019-03-22T18:58:20.188Z,65.87
2019-03-22T19:00:50.208Z,68.87
2019-03-22T19:03:18.688Z,67.90
2019-03-22T19:05:47.165Z,67.03
2019-03-22T19:08:15.669Z,69.20
2019-03-22T19:10:44.145Z,67.72
2019-03-22T19:13:12.643Z,67.97
2019-03-22T19:15:41.180Z,69.17
2019-03-22T19:18:09.667Z,70.35
2019-03-22T19:20:38.174Z,68.80
2019-03-22T19:23:06.674Z,69.07
2019-03-22T19:25:35.197Z,70.83
2019-03-22T19:28:06.684Z,68.67
2019-03-22T19:30:35.238Z,69.17
2019-03-22T19:33:03.727Z,68.25
2019-03-22T19:35:32.304Z,69.20
2019-03-22T19:38:00.821Z,69.87
2019-03-22T19:40:29.388Z,66.40
2019-03-22T19:42:57.858Z,68.65
2019-03-22T19:45:26.438Z,70.52
2019-03-22T19:47:54.933Z,70.72
2019-03-22T19:50:25.423Z,67.72
2019-03-22T19:52:55.753Z,67.67
2019-03-22T19:55:25.824Z,68.70
2019-03-22T19:57:54.341Z,69.97
2019-03-22T20:00:23.010Z,71.02
2019-03-22T20:02:51.516Z,70.92
2019-03-22T20:05:33.532Z,72.15
2019-03-22T20:08:02.452Z,71.90
2019-03-22T20:10:35.631Z,71.07
2019-03-22T20:13:04.277Z,71.20
2019-03-22T20:15:34.770Z,68.37
2019-03-22T20:18:03.408Z,72.55
2019-03-22T20:20:31.956Z,70.65
2019-03-22T20:23:02.693Z,71.02
2019-03-22T20:25:31.189Z,71.75
2019-03-22T20:27:59.745Z,71.28
2019-03-22T20:30:32.596Z,70.57
2019-03-22T20:33:04.144Z,68.07
2019-03-22T20:35:33.887Z,70.08
2019-03-22T20:38:05.171Z,71.62
2019-03-22T20:40:34.099Z,70.80
2019-03-22T20:43:02.537Z,71.02
2019-03-22T20:45:37.070Z,72.00
2019-03-22T20:48:05.652Z,71.87
2019-03-22T20:50:36.000Z,65.50
2019-03-22T20:53:04.326Z,69.40
2019-03-22T20:55:35.658Z,68.72
2019-03-22T20:58:05.510Z,69.40
2019-03-22T21:00:34.087Z,69.10
2019-03-22T21:03:04.062Z,64.00
2019-03-22T21:05:32.573Z,68.12
2019-03-22T21:08:01.095Z,66.30
2019-03-22T21:10:29.595Z,64.05
2019-03-22T21:12:58.076Z,62.00
2019-03-22T21:15:26.629Z,61.65
2019-03-22T21:17:55.109Z,59.58
2019-03-22T21:20:23.759Z,63.20
2019-03-22T21:22:53.922Z,58.55
2019-03-22T21:25:22.486Z,60.30
2019-03-22T21:27:50.967Z,59.13
2019-03-22T21:30:22.543Z,57.95
2019-03-22T21:32:51.219Z,59.75
2019-03-22T21:35:22.918Z,59.70
2019-03-22T21:37:50.029Z,57.23
2019-03-22T21:40:18.793Z,56.58
2019-03-22T21:42:47.407Z,55.63
2019-03-22T21:45:16.089Z,56.77
2019-03-22T21:47:44.708Z,58.50
2019-03-22T21:50:15.825Z,57.78
2019-03-22T21:52:44.309Z,55.92
2019-03-22T21:55:12.995Z,55.52
2019-03-22T21:57:41.496Z,53.95
2019-03-22T22:00:12.097Z,54.80
2019-03-22T22:02:40.612Z,54.93
2019-03-22T22:05:09.387Z,56.33
2019-03-22T22:07:37.874Z,60.70
2019-03-22T22:10:07.774Z,55.90
2019-03-22T22:12:36.336Z,52.78
2019-03-22T22:15:08.645Z,56.88
2019-03-22T22:17:39.238Z,60.08
2019-03-22T22:20:07.983Z,60.20
2019-03-22T22:22:36.491Z,60.38
2019-03-22T22:25:06.985Z,57.35
2019-03-22T22:27:35.735Z,57.80
2019-03-22T22:30:06.783Z,56.55
2019-03-22T22:32:35.359Z,57.62
2019-03-22T22:35:06.123Z,58.00
2019-03-22T22:37:34.591Z,57.38
2019-03-22T22:40:04.589Z,58.65
2019-03-22T22:42:33.081Z,54.23
2019-03-22T22:45:01.628Z,57.00
2019-03-22T22:47:30.200Z,55.33
2019-03-22T22:49:58.738Z,56.88
2019-03-22T22:52:27.254Z,51.53
2019-03-22T22:54:55.737Z,53.83
2019-03-22T22:57:24.247Z,47.95
2019-03-22T22:59:52.701Z,55.28
2019-03-22T23:02:23.722Z,56.63
2019-03-22T23:04:52.258Z,51.85
2019-03-22T23:07:20.731Z,50.75
2019-03-22T23:09:49.234Z,51.53
2019-03-22T23:12:17.726Z,51.55
2019-03-22T23:14:46.261Z,57.50
2019-03-22T23:17:14.749Z,55.28
2019-03-22T23:19:43.313Z,55.08
2019-03-22T23:22:11.934Z,52.08
2019-03-22T23:24:42.609Z,54.23
2019-03-22T23:27:10.709Z,53.78
2019-03-22T23:29:39.318Z,57.48
2019-03-22T23:32:07.834Z,53.23
2019-03-22T23:34:36.364Z,54.55
2019-03-22T23:37:07.074Z,54.73
2019-03-22T23:39:35.212Z,51.90
2019-03-22T23:42:03.772Z,53.23
2019-03-22T23:44:32.262Z,53.48
2019-03-22T23:47:00.767Z,51.83
2019-03-22T23:49:29.266Z,50.50
2019-03-22T23:51:57.935Z,49.70
2019-03-22T23:54:34.633Z,49.58
2019-03-22T23:57:03.274Z,53.33
2019-03-22T23:59:31.776Z,51.85
